sensor_id;sensor_type;location;lat;lon;timestamp;P1;durP1;ratioP1;P2;durP2;ratioP2
21497;SDS011;10910;50.932;0.246;2022-10-16T00:01:09;0.60;;;0.60;;
21497;SDS011;10910;50.932;0.246;2022-10-16T00:03:38;0.60;;;0.60;;
21497;SDS011;10910;50.932;0.246;2022-10-16T00:06:04;0.45;;;0.45;;
21497;SDS011;10910;50.932;0.246;2022-10-16T00:08:30;0.60;;;0.60;;
21497;SDS011;10910;50.932;0.246;2022-10-16T00:11:03;0.60;;;0.60;;
21497;SDS011;10910;50.932;0.246;2022-10-16T00:13:34;0.60;;;0.60;;
21497;SDS011;10910;50.932;0.246;2022-10-16T00:16:00;0.50;;;0.50;;
21497;SDS011;10910;50.932;0.246;2022-10-16T00:18:27;0.60;;;0.60;;
21497;SDS011;10910;50.932;0.246;2022-10-16T00:20:54;0.60;;;0.60;;
21497;SDS011;10910;50.932;0.246;2022-10-16T00:23:20;0.60;;;0.60;;
21497;SDS011;10910;50.932;0.246;2022-10-16T00:25:59;0.60;;;0.60;;
21497;SDS011;10910;50.932;0.246;2022-10-16T00:28:28;0.60;;;0.60;;
21497;SDS011;10910;50.932;0.246;2022-10-16T00:30:54;0.60;;;0.60;;
21497;SDS011;10910;50.932;0.246;2022-10-16T00:33:20;0.60;;;0.60;;
21497;SDS011;10910;50.932;0.246;2022-10-16T00:35:46;0.60;;;0.60;;
21497;SDS011;10910;50.932;0.246;2022-10-16T00:38:13;0.50;;;0.50;;
21497;SDS011;10910;50.932;0.246;2022-10-16T00:40:39;0.52;;;0.52;;
21497;SDS011;10910;50.932;0.246;2022-10-16T00:43:32;0.60;;;0.60;;
21497;SDS011;10910;50.932;0.246;2022-10-16T00:45:58;0.60;;;0.60;;
21497;SDS011;10910;50.932;0.246;2022-10-16T00:48:25;0.60;;;0.60;;
21497;SDS011;10910;50.932;0.246;2022-10-16T00:50:51;0.70;;;0.70;;
21497;SDS011;10910;50.932;0.246;2022-10-16T00:53:18;0.60;;;0.60;;
21497;SDS011;10910;50.932;0.246;2022-10-16T00:55:44;0.60;;;0.60;;
21497;SDS011;10910;50.932;0.246;2022-10-16T00:58:11;0.50;;;0.50;;
21497;SDS011;10910;50.932;0.246;2022-10-16T01:00:37;0.57;;;0.57;;
21497;SDS011;10910;50.932;0.246;2022-10-16T01:03:03;0.60;;;0.60;;
21497;SDS011;10910;50.932;0.246;2022-10-16T01:05:49;0.60;;;0.60;;
21497;SDS011;10910;50.932;0.246;2022-10-16T01:08:44;0.60;;;0.60;;
21497;SDS011;10910;50.932;0.246;2022-10-16T01:11:22;0.60;;;0.60;;
21497;SDS011;10910;50.932;0.246;2022-10-16T01:14:18;0.52;;;0.52;;
21497;SDS011;10910;50.932;0.246;2022-10-16T01:17:18;0.52;;;0.52;;
21497;SDS011;10910;50.932;0.246;2022-10-16T01:20:07;0.68;;;0.68;;
21497;SDS011;10910;50.932;0.246;2022-10-16T01:28:45;0.60;;;0.60;;
21497;SDS011;10910;50.932;0.246;2022-10-16T01:31:16;0.60;;;0.60;;
21497;SDS011;10910;50.932;0.246;2022-10-16T01:33:45;0.70;;;0.70;;
21497;SDS011;10910;50.932;0.246;2022-10-16T01:36:21;0.70;;;0.70;;
21497;SDS011;10910;50.932;0.246;2022-10-16T01:38:52;0.60;;;0.60;;
21497;SDS011;10910;50.932;0.246;2022-10-16T01:41:31;0.60;;;0.60;;
21497;SDS011;10910;50.932;0.246;2022-10-16T01:46:27;0.70;;;0.70;;
21497;SDS011;10910;50.932;0.246;2022-10-16T01:48:54;0.60;;;0.60;;
21497;SDS011;10910;50.932;0.246;2022-10-16T01:51:21;0.70;;;0.70;;
21497;SDS011;10910;50.932;0.246;2022-10-16T01:53:49;0.70;;;0.70;;
21497;SDS011;10910;50.932;0.246;2022-10-16T01:56:18;0.60;;;0.60;;
21497;SDS011;10910;50.932;0.246;2022-10-16T01:58:47;0.60;;;0.60;;
21497;SDS011;10910;50.932;0.246;2022-10-16T02:01:18;0.60;;;0.60;;
21497;SDS011;10910;50.932;0.246;2022-10-16T02:03:45;0.60;;;0.60;;
21497;SDS011;10910;50.932;0.246;2022-10-16T02:06:13;0.50;;;0.50;;
21497;SDS011;10910;50.932;0.246;2022-10-16T02:08:39;0.70;;;0.70;;
21497;SDS011;10910;50.932;0.246;2022-10-16T02:11:09;0.60;;;0.60;;
21497;SDS011;10910;50.932;0.246;2022-10-16T02:13:42;0.70;;;0.70;;
21497;SDS011;10910;50.932;0.246;2022-10-16T02:16:10;0.80;;;0.80;;
21497;SDS011;10910;50.932;0.246;2022-10-16T02:18:38;0.70;;;0.70;;
21497;SDS011;10910;50.932;0.246;2022-10-16T02:23:38;0.70;;;0.70;;
21497;SDS011;10910;50.932;0.246;2022-10-16T02:26:28;0.60;;;0.60;;
21497;SDS011;10910;50.932;0.246;2022-10-16T02:29:07;0.60;;;0.60;;
21497;SDS011;10910;50.932;0.246;2022-10-16T02:31:35;0.60;;;0.60;;
21497;SDS011;10910;50.932;0.246;2022-10-16T02:34:06;0.60;;;0.60;;
21497;SDS011;10910;50.932;0.246;2022-10-16T02:36:32;0.60;;;0.60;;
21497;SDS011;10910;50.932;0.246;2022-10-16T02:39:00;0.60;;;0.60;;
21497;SDS011;10910;50.932;0.246;2022-10-16T02:41:28;0.60;;;0.60;;
21497;SDS011;10910;50.932;0.246;2022-10-16T02:43:55;0.60;;;0.60;;
21497;SDS011;10910;50.932;0.246;2022-10-16T02:46:21;0.50;;;0.50;;
21497;SDS011;10910;50.932;0.246;2022-10-16T02:48:47;0.60;;;0.60;;
21497;SDS011;10910;50.932;0.246;2022-10-16T02:51:13;0.60;;;0.60;;
21497;SDS011;10910;50.932;0.246;2022-10-16T02:53:39;0.50;;;0.50;;
21497;SDS011;10910;50.932;0.246;2022-10-16T02:56:05;0.60;;;0.60;;
21497;SDS011;10910;50.932;0.246;2022-10-16T02:58:31;0.50;;;0.50;;
21497;SDS011;10910;50.932;0.246;2022-10-16T03:00:57;0.70;;;0.70;;
21497;SDS011;10910;50.932;0.246;2022-10-16T03:03:23;0.60;;;0.60;;
21497;SDS011;10910;50.932;0.246;2022-10-16T03:05:49;0.70;;;0.70;;
21497;SDS011;10910;50.932;0.246;2022-10-16T03:08:15;0.60;;;0.60;;
21497;SDS011;10910;50.932;0.246;2022-10-16T03:10:42;0.60;;;0.60;;
21497;SDS011;10910;50.932;0.246;2022-10-16T03:13:08;0.60;;;0.60;;
21497;SDS011;10910;50.932;0.246;2022-10-16T03:15:34;0.63;;;0.63;;
21497;SDS011;10910;50.932;0.246;2022-10-16T03:18:00;0.70;;;0.70;;
21497;SDS011;10910;50.932;0.246;2022-10-16T03:20:26;0.70;;;0.70;;
21497;SDS011;10910;50.932;0.246;2022-10-16T03:22:52;0.63;;;0.63;;
21497;SDS011;10910;50.932;0.246;2022-10-16T03:25:18;0.77;;;0.77;;
21497;SDS011;10910;50.932;0.246;2022-10-16T03:27:44;0.70;;;0.70;;
21497;SDS011;10910;50.932;0.246;2022-10-16T03:30:11;0.73;;;0.73;;
21497;SDS011;10910;50.932;0.246;2022-10-16T03:32:37;0.60;;;0.60;;
21497;SDS011;10910;50.932;0.246;2022-10-16T03:35:03;0.60;;;0.60;;
21497;SDS011;10910;50.932;0.246;2022-10-16T03:37:29;0.60;;;0.60;;
21497;SDS011;10910;50.932;0.246;2022-10-16T03:39:55;0.50;;;0.50;;
21497;SDS011;10910;50.932;0.246;2022-10-16T03:42:21;0.70;;;0.70;;
21497;SDS011;10910;50.932;0.246;2022-10-16T03:44:47;0.70;;;0.70;;
21497;SDS011;10910;50.932;0.246;2022-10-16T03:47:13;0.63;;;0.63;;
21497;SDS011;10910;50.932;0.246;2022-10-16T03:49:40;0.65;;;0.65;;
21497;SDS011;10910;50.932;0.246;2022-10-16T03:52:06;0.50;;;0.50;;
21497;SDS011;10910;50.932;0.246;2022-10-16T03:54:32;0.70;;;0.70;;
21497;SDS011;10910;50.932;0.246;2022-10-16T03:56:58;0.60;;;0.60;;
21497;SDS011;10910;50.932;0.246;2022-10-16T03:59:24;0.68;;;0.68;;
21497;SDS011;10910;50.932;0.246;2022-10-16T04:01:50;0.60;;;0.60;;
21497;SDS011;10910;50.932;0.246;2022-10-16T04:04:16;0.60;;;0.60;;
21497;SDS011;10910;50.932;0.246;2022-10-16T04:06:42;0.50;;;0.50;;
21497;SDS011;10910;50.932;0.246;2022-10-16T04:09:08;0.70;;;0.70;;
21497;SDS011;10910;50.932;0.246;2022-10-16T04:11:34;0.65;;;0.65;;
21497;SDS011;10910;50.932;0.246;2022-10-16T04:14:00;0.70;;;0.70;;
21497;SDS011;10910;50.932;0.246;2022-10-16T04:16:26;0.60;;;0.60;;
21497;SDS011;10910;50.932;0.246;2022-10-16T04:18:52;0.70;;;0.70;;
21497;SDS011;10910;50.932;0.246;2022-10-16T04:21:18;0.60;;;0.60;;
21497;SDS011;10910;50.932;0.246;2022-10-16T04:23:44;0.73;;;0.73;;
21497;SDS011;10910;50.932;0.246;2022-10-16T04:26:10;0.60;;;0.60;;
21497;SDS011;10910;50.932;0.246;2022-10-16T04:28:36;0.60;;;0.60;;
21497;SDS011;10910;50.932;0.246;2022-10-16T04:31:05;0.65;;;0.65;;
21497;SDS011;10910;50.932;0.246;2022-10-16T04:33:31;0.70;;;0.70;;
21497;SDS011;10910;50.932;0.246;2022-10-16T04:35:58;0.60;;;0.60;;
21497;SDS011;10910;50.932;0.246;2022-10-16T04:38:24;0.70;;;0.70;;
21497;SDS011;10910;50.932;0.246;2022-10-16T04:40:50;0.50;;;0.50;;
21497;SDS011;10910;50.932;0.246;2022-10-16T04:43:17;0.70;;;0.70;;
21497;SDS011;10910;50.932;0.246;2022-10-16T04:45:43;0.60;;;0.60;;
21497;SDS011;10910;50.932;0.246;2022-10-16T04:48:09;0.60;;;0.60;;
21497;SDS011;10910;50.932;0.246;2022-10-16T04:50:35;0.60;;;0.60;;
21497;SDS011;10910;50.932;0.246;2022-10-16T04:53:01;0.70;;;0.70;;
21497;SDS011;10910;50.932;0.246;2022-10-16T04:55:27;0.70;;;0.70;;
21497;SDS011;10910;50.932;0.246;2022-10-16T04:57:53;0.60;;;0.60;;
21497;SDS011;10910;50.932;0.246;2022-10-16T05:00:19;0.60;;;0.60;;
21497;SDS011;10910;50.932;0.246;2022-10-16T05:02:45;0.70;;;0.70;;
21497;SDS011;10910;50.932;0.246;2022-10-16T05:05:12;0.80;;;0.80;;
21497;SDS011;10910;50.932;0.246;2022-10-16T05:07:39;0.60;;;0.60;;
21497;SDS011;10910;50.932;0.246;2022-10-16T05:10:05;0.80;;;0.80;;
21497;SDS011;10910;50.932;0.246;2022-10-16T05:12:31;0.70;;;0.70;;
21497;SDS011;10910;50.932;0.246;2022-10-16T05:14:57;0.60;;;0.60;;
21497;SDS011;10910;50.932;0.246;2022-10-16T05:17:24;0.70;;;0.70;;
21497;SDS011;10910;50.932;0.246;2022-10-16T05:19:50;0.60;;;0.60;;
21497;SDS011;10910;50.932;0.246;2022-10-16T05:22:16;0.70;;;0.70;;
21497;SDS011;10910;50.932;0.246;2022-10-16T05:24:42;0.60;;;0.60;;
21497;SDS011;10910;50.932;0.246;2022-10-16T05:27:09;0.70;;;0.70;;
21497;SDS011;10910;50.932;0.246;2022-10-16T05:29:35;0.52;;;0.52;;
21497;SDS011;10910;50.932;0.246;2022-10-16T05:32:02;0.60;;;0.60;;
21497;SDS011;10910;50.932;0.246;2022-10-16T05:34:28;0.60;;;0.60;;
21497;SDS011;10910;50.932;0.246;2022-10-16T05:36:54;0.60;;;0.60;;
21497;SDS011;10910;50.932;0.246;2022-10-16T05:39:20;0.60;;;0.60;;
21497;SDS011;10910;50.932;0.246;2022-10-16T05:41:46;0.70;;;0.70;;
21497;SDS011;10910;50.932;0.246;2022-10-16T05:44:12;0.70;;;0.70;;
21497;SDS011;10910;50.932;0.246;2022-10-16T05:46:38;0.70;;;0.70;;
21497;SDS011;10910;50.932;0.246;2022-10-16T05:49:04;0.60;;;0.60;;
21497;SDS011;10910;50.932;0.246;2022-10-16T05:51:30;0.70;;;0.70;;
21497;SDS011;10910;50.932;0.246;2022-10-16T05:53:56;0.70;;;0.70;;
21497;SDS011;10910;50.932;0.246;2022-10-16T05:56:22;0.70;;;0.70;;
21497;SDS011;10910;50.932;0.246;2022-10-16T05:58:48;0.60;;;0.60;;
21497;SDS011;10910;50.932;0.246;2022-10-16T06:01:18;0.70;;;0.70;;
21497;SDS011;10910;50.932;0.246;2022-10-16T06:03:45;0.70;;;0.70;;
21497;SDS011;10910;50.932;0.246;2022-10-16T06:06:16;0.70;;;0.70;;
21497;SDS011;10910;50.932;0.246;2022-10-16T06:08:42;0.60;;;0.60;;
21497;SDS011;10910;50.932;0.246;2022-10-16T06:11:11;0.60;;;0.60;;
21497;SDS011;10910;50.932;0.246;2022-10-16T06:13:38;0.60;;;0.60;;
21497;SDS011;10910;50.932;0.246;2022-10-16T06:16:07;0.63;;;0.63;;
21497;SDS011;10910;50.932;0.246;2022-10-16T06:18:33;0.60;;;0.60;;
21497;SDS011;10910;50.932;0.246;2022-10-16T06:20:59;0.70;;;0.70;;
21497;SDS011;10910;50.932;0.246;2022-10-16T06:23:25;0.68;;;0.68;;
21497;SDS011;10910;50.932;0.246;2022-10-16T06:25:51;0.60;;;0.60;;
21497;SDS011;10910;50.932;0.246;2022-10-16T06:28:17;0.70;;;0.70;;
21497;SDS011;10910;50.932;0.246;2022-10-16T06:30:43;0.70;;;0.70;;
21497;SDS011;10910;50.932;0.246;2022-10-16T06:33:12;0.60;;;0.60;;
21497;SDS011;10910;50.932;0.246;2022-10-16T06:35:38;0.60;;;0.60;;
21497;SDS011;10910;50.932;0.246;2022-10-16T06:38:04;0.55;;;0.55;;
21497;SDS011;10910;50.932;0.246;2022-10-16T06:40:30;0.60;;;0.60;;
21497;SDS011;10910;50.932;0.246;2022-10-16T06:42:56;0.70;;;0.70;;
21497;SDS011;10910;50.932;0.246;2022-10-16T06:45:22;0.63;;;0.63;;
21497;SDS011;10910;50.932;0.246;2022-10-16T06:47:48;0.60;;;0.60;;
21497;SDS011;10910;50.932;0.246;2022-10-16T06:50:14;0.60;;;0.60;;
21497;SDS011;10910;50.932;0.246;2022-10-16T06:52:40;0.60;;;0.60;;
21497;SDS011;10910;50.932;0.246;2022-10-16T06:55:06;0.60;;;0.60;;
21497;SDS011;10910;50.932;0.246;2022-10-16T06:57:33;0.70;;;0.70;;
21497;SDS011;10910;50.932;0.246;2022-10-16T06:59:59;0.60;;;0.60;;
21497;SDS011;10910;50.932;0.246;2022-10-16T07:02:25;0.60;;;0.60;;
21497;SDS011;10910;50.932;0.246;2022-10-16T07:04:51;0.70;;;0.70;;
21497;SDS011;10910;50.932;0.246;2022-10-16T07:07:17;0.60;;;0.60;;
21497;SDS011;10910;50.932;0.246;2022-10-16T07:09:43;0.50;;;0.50;;
21497;SDS011;10910;50.932;0.246;2022-10-16T07:12:09;0.60;;;0.60;;
21497;SDS011;10910;50.932;0.246;2022-10-16T07:14:35;0.60;;;0.60;;
21497;SDS011;10910;50.932;0.246;2022-10-16T07:17:01;0.60;;;0.60;;
21497;SDS011;10910;50.932;0.246;2022-10-16T07:19:27;0.60;;;0.60;;
21497;SDS011;10910;50.932;0.246;2022-10-16T07:21:53;0.90;;;0.90;;
21497;SDS011;10910;50.932;0.246;2022-10-16T07:24:19;0.60;;;0.60;;
21497;SDS011;10910;50.932;0.246;2022-10-16T07:26:45;0.80;;;0.80;;
21497;SDS011;10910;50.932;0.246;2022-10-16T07:29:13;0.80;;;0.80;;
21497;SDS011;10910;50.932;0.246;2022-10-16T07:31:40;0.60;;;0.60;;
21497;SDS011;10910;50.932;0.246;2022-10-16T07:34:06;0.60;;;0.60;;
21497;SDS011;10910;50.932;0.246;2022-10-16T07:36:32;0.63;;;0.63;;
21497;SDS011;10910;50.932;0.246;2022-10-16T07:38:59;0.50;;;0.50;;
21497;SDS011;10910;50.932;0.246;2022-10-16T07:41:25;0.60;;;0.60;;
21497;SDS011;10910;50.932;0.246;2022-10-16T07:43:52;0.60;;;0.60;;
21497;SDS011;10910;50.932;0.246;2022-10-16T07:46:19;0.60;;;0.60;;
21497;SDS011;10910;50.932;0.246;2022-10-16T07:48:47;0.70;;;0.70;;
21497;SDS011;10910;50.932;0.246;2022-10-16T07:51:14;0.70;;;0.70;;
21497;SDS011;10910;50.932;0.246;2022-10-16T07:53:42;0.70;;;0.70;;
21497;SDS011;10910;50.932;0.246;2022-10-16T07:56:08;0.60;;;0.60;;
21497;SDS011;10910;50.932;0.246;2022-10-16T07:58:34;0.60;;;0.60;;
21497;SDS011;10910;50.932;0.246;2022-10-16T08:01:10;0.50;;;0.50;;
21497;SDS011;10910;50.932;0.246;2022-10-16T08:03:46;0.60;;;0.60;;
21497;SDS011;10910;50.932;0.246;2022-10-16T08:06:14;0.50;;;0.50;;
21497;SDS011;10910;50.932;0.246;2022-10-16T08:08:40;0.60;;;0.60;;
21497;SDS011;10910;50.932;0.246;2022-10-16T08:11:06;0.50;;;0.50;;
21497;SDS011;10910;50.932;0.246;2022-10-16T08:13:33;0.60;;;0.60;;
21497;SDS011;10910;50.932;0.246;2022-10-16T08:15:59;0.60;;;0.60;;
21497;SDS011;10910;50.932;0.246;2022-10-16T08:18:26;0.50;;;0.50;;
21497;SDS011;10910;50.932;0.246;2022-10-16T08:20:56;0.50;;;0.50;;
21497;SDS011;10910;50.932;0.246;2022-10-16T08:23:22;0.60;;;0.60;;
21497;SDS011;10910;50.932;0.246;2022-10-16T08:25:50;0.60;;;0.60;;
21497;SDS011;10910;50.932;0.246;2022-10-16T08:28:17;0.50;;;0.50;;
21497;SDS011;10910;50.932;0.246;2022-10-16T08:30:43;0.60;;;0.60;;
21497;SDS011;10910;50.932;0.246;2022-10-16T08:33:09;0.40;;;0.40;;
21497;SDS011;10910;50.932;0.246;2022-10-16T08:35:35;0.50;;;0.50;;
21497;SDS011;10910;50.932;0.246;2022-10-16T08:38:05;0.50;;;0.50;;
21497;SDS011;10910;50.932;0.246;2022-10-16T08:40:31;0.50;;;0.50;;
21497;SDS011;10910;50.932;0.246;2022-10-16T08:48:13;0.60;;;0.60;;
21497;SDS011;10910;50.932;0.246;2022-10-16T08:50:51;0.40;;;0.40;;
21497;SDS011;10910;50.932;0.246;2022-10-16T08:53:21;0.50;;;0.50;;
21497;SDS011;10910;50.932;0.246;2022-10-16T08:55:51;0.30;;;0.30;;
21497;SDS011;10910;50.932;0.246;2022-10-16T08:58:22;0.40;;;0.40;;
21497;SDS011;10910;50.932;0.246;2022-10-16T09:00:56;0.40;;;0.40;;
21497;SDS011;10910;50.932;0.246;2022-10-16T09:22:43;0.40;;;0.40;;
21497;SDS011;10910;50.932;0.246;2022-10-16T09:25:11;0.30;;;0.30;;
21497;SDS011;10910;50.932;0.246;2022-10-16T09:27:48;0.35;;;0.35;;
21497;SDS011;10910;50.932;0.246;2022-10-16T09:30:18;0.30;;;0.30;;
21497;SDS011;10910;50.932;0.246;2022-10-16T09:32:45;0.40;;;0.40;;
21497;SDS011;10910;50.932;0.246;2022-10-16T09:35:20;0.30;;;0.30;;
21497;SDS011;10910;50.932;0.246;2022-10-16T09:37:50;0.30;;;0.30;;
21497;SDS011;10910;50.932;0.246;2022-10-16T09:40:25;0.40;;;0.40;;
21497;SDS011;10910;50.932;0.246;2022-10-16T09:48:22;0.30;;;0.30;;
21497;SDS011;10910;50.932;0.246;2022-10-16T09:50:55;0.40;;;0.40;;
21497;SDS011;10910;50.932;0.246;2022-10-16T09:53:22;0.20;;;0.20;;
21497;SDS011;10910;50.932;0.246;2022-10-16T09:55:49;0.40;;;0.40;;
21497;SDS011;10910;50.932;0.246;2022-10-16T09:58:15;0.40;;;0.40;;
21497;SDS011;10910;50.932;0.246;2022-10-16T10:00:41;0.45;;;0.45;;
21497;SDS011;10910;50.932;0.246;2022-10-16T10:03:19;0.50;;;0.50;;
21497;SDS011;10910;50.932;0.246;2022-10-16T10:05:52;0.30;;;0.30;;
21497;SDS011;10910;50.932;0.246;2022-10-16T10:08:18;0.30;;;0.30;;
21497;SDS011;10910;50.932;0.246;2022-10-16T10:10:44;0.50;;;0.50;;
21497;SDS011;10910;50.932;0.246;2022-10-16T10:13:20;0.30;;;0.30;;
21497;SDS011;10910;50.932;0.246;2022-10-16T10:15:47;0.20;;;0.20;;
21497;SDS011;10910;50.932;0.246;2022-10-16T10:18:17;0.43;;;0.43;;
21497;SDS011;10910;50.932;0.246;2022-10-16T10:20:45;0.50;;;0.50;;
21497;SDS011;10910;50.932;0.246;2022-10-16T10:23:29;0.40;;;0.40;;
21497;SDS011;10910;50.932;0.246;2022-10-16T10:26:13;0.40;;;0.40;;
21497;SDS011;10910;50.932;0.246;2022-10-16T10:28:52;0.40;;;0.40;;
21497;SDS011;10910;50.932;0.246;2022-10-16T10:39:47;0.30;;;0.30;;
21497;SDS011;10910;50.932;0.246;2022-10-16T10:42:29;0.40;;;0.40;;
21497;SDS011;10910;50.932;0.246;2022-10-16T10:45:21;0.32;;;0.32;;
21497;SDS011;10910;50.932;0.246;2022-10-16T10:50:31;0.30;;;0.30;;
21497;SDS011;10910;50.932;0.246;2022-10-16T10:55:33;0.40;;;0.40;;
21497;SDS011;10910;50.932;0.246;2022-10-16T10:58:22;0.40;;;0.40;;
21497;SDS011;10910;50.932;0.246;2022-10-16T11:01:17;0.40;;;0.40;;
21497;SDS011;10910;50.932;0.246;2022-10-16T11:06:26;0.40;;;0.40;;
21497;SDS011;10910;50.932;0.246;2022-10-16T11:11:37;0.40;;;0.40;;
21497;SDS011;10910;50.932;0.246;2022-10-16T11:14:15;0.40;;;0.40;;
21497;SDS011;10910;50.932;0.246;2022-10-16T11:16:52;0.40;;;0.40;;
21497;SDS011;10910;50.932;0.246;2022-10-16T11:22:03;0.30;;;0.30;;
21497;SDS011;10910;50.932;0.246;2022-10-16T11:27:05;0.40;;;0.40;;
21497;SDS011;10910;50.932;0.246;2022-10-16T11:29:33;0.30;;;0.30;;
21497;SDS011;10910;50.932;0.246;2022-10-16T11:32:05;0.30;;;0.30;;
21497;SDS011;10910;50.932;0.246;2022-10-16T11:34:42;0.30;;;0.30;;
21497;SDS011;10910;50.932;0.246;2022-10-16T11:37:19;0.40;;;0.40;;
21497;SDS011;10910;50.932;0.246;2022-10-16T11:39:50;0.30;;;0.30;;
21497;SDS011;10910;50.932;0.246;2022-10-16T11:42:57;0.45;;;0.45;;
21497;SDS011;10910;50.932;0.246;2022-10-16T11:45:30;0.50;;;0.50;;
21497;SDS011;10910;50.932;0.246;2022-10-16T11:50:53;0.50;;;0.50;;
21497;SDS011;10910;50.932;0.246;2022-10-16T11:55:46;0.50;;;0.50;;
21497;SDS011;10910;50.932;0.246;2022-10-16T12:00:44;0.47;;;0.47;;
21497;SDS011;10910;50.932;0.246;2022-10-16T12:08:46;0.30;;;0.30;;
21497;SDS011;10910;50.932;0.246;2022-10-16T12:11:23;0.40;;;0.40;;
21497;SDS011;10910;50.932;0.246;2022-10-16T12:14:39;0.40;;;0.40;;
21497;SDS011;10910;50.932;0.246;2022-10-16T12:16:59;0.40;;;0.40;;
21497;SDS011;10910;50.932;0.246;2022-10-16T12:19:29;0.40;;;0.40;;
21497;SDS011;10910;50.932;0.246;2022-10-16T12:21:57;0.50;;;0.50;;
21497;SDS011;10910;50.932;0.246;2022-10-16T12:24:32;0.50;;;0.50;;
21497;SDS011;10910;50.932;0.246;2022-10-16T12:27:04;0.30;;;0.30;;
21497;SDS011;10910;50.932;0.246;2022-10-16T12:29:45;0.40;;;0.40;;
21497;SDS011;10910;50.932;0.246;2022-10-16T12:34:56;0.40;;;0.40;;
21497;SDS011;10910;50.932;0.246;2022-10-16T12:37:24;0.30;;;0.30;;
21497;SDS011;10910;50.932;0.246;2022-10-16T12:40:46;0.30;;;0.30;;
21497;SDS011;10910;50.932;0.246;2022-10-16T12:42:57;0.50;;;0.50;;
21497;SDS011;10910;50.932;0.246;2022-10-16T12:45:33;0.50;;;0.50;;
21497;SDS011;10910;50.932;0.246;2022-10-16T12:48:00;0.40;;;0.40;;
21497;SDS011;10910;50.932;0.246;2022-10-16T12:50:29;0.40;;;0.40;;
21497;SDS011;10910;50.932;0.246;2022-10-16T12:53:01;0.30;;;0.30;;
21497;SDS011;10910;50.932;0.246;2022-10-16T12:55:30;0.50;;;0.50;;
21497;SDS011;10910;50.932;0.246;2022-10-16T13:23:42;0.50;;;0.50;;
21497;SDS011;10910;50.932;0.246;2022-10-16T13:26:15;0.40;;;0.40;;
21497;SDS011;10910;50.932;0.246;2022-10-16T13:28:42;0.40;;;0.40;;
21497;SDS011;10910;50.932;0.246;2022-10-16T13:31:13;0.60;;;0.60;;
21497;SDS011;10910;50.932;0.246;2022-10-16T13:33:45;0.60;;;0.60;;
21497;SDS011;10910;50.932;0.246;2022-10-16T13:39:13;0.40;;;0.40;;
21497;SDS011;10910;50.932;0.246;2022-10-16T13:42:06;0.50;;;0.50;;
21497;SDS011;10910;50.932;0.246;2022-10-16T13:44:35;0.50;;;0.50;;
21497;SDS011;10910;50.932;0.246;2022-10-16T13:47:02;0.40;;;0.40;;
21497;SDS011;10910;50.932;0.246;2022-10-16T13:49:28;0.50;;;0.50;;
21497;SDS011;10910;50.932;0.246;2022-10-16T13:51:55;0.50;;;0.50;;
21497;SDS011;10910;50.932;0.246;2022-10-16T13:54:21;0.40;;;0.40;;
21497;SDS011;10910;50.932;0.246;2022-10-16T13:56:47;0.50;;;0.50;;
21497;SDS011;10910;50.932;0.246;2022-10-16T14:01:49;0.40;;;0.40;;
21497;SDS011;10910;50.932;0.246;2022-10-16T14:04:16;0.50;;;0.50;;
21497;SDS011;10910;50.932;0.246;2022-10-16T14:11:46;0.50;;;0.50;;
21497;SDS011;10910;50.932;0.246;2022-10-16T14:14:13;0.30;;;0.30;;
21497;SDS011;10910;50.932;0.246;2022-10-16T14:16:40;0.50;;;0.50;;
21497;SDS011;10910;50.932;0.246;2022-10-16T14:19:14;0.50;;;0.50;;
21497;SDS011;10910;50.932;0.246;2022-10-16T14:21:41;0.50;;;0.50;;
21497;SDS011;10910;50.932;0.246;2022-10-16T14:24:10;0.50;;;0.50;;
21497;SDS011;10910;50.932;0.246;2022-10-16T14:26:41;0.60;;;0.60;;
21497;SDS011;10910;50.932;0.246;2022-10-16T14:31:37;0.50;;;0.50;;
21497;SDS011;10910;50.932;0.246;2022-10-16T14:34:05;0.50;;;0.50;;
21497;SDS011;10910;50.932;0.246;2022-10-16T14:36:49;0.40;;;0.40;;
21497;SDS011;10910;50.932;0.246;2022-10-16T14:39:19;0.50;;;0.50;;
21497;SDS011;10910;50.932;0.246;2022-10-16T14:41:48;0.50;;;0.50;;
21497;SDS011;10910;50.932;0.246;2022-10-16T14:44:17;0.60;;;0.60;;
21497;SDS011;10910;50.932;0.246;2022-10-16T14:46:44;0.50;;;0.50;;
21497;SDS011;10910;50.932;0.246;2022-10-16T14:51:40;0.40;;;0.40;;
21497;SDS011;10910;50.932;0.246;2022-10-16T14:54:09;0.50;;;0.50;;
21497;SDS011;10910;50.932;0.246;2022-10-16T14:56:42;0.40;;;0.40;;
21497;SDS011;10910;50.932;0.246;2022-10-16T15:04:58;0.50;;;0.50;;
21497;SDS011;10910;50.932;0.246;2022-10-16T15:07:38;0.50;;;0.50;;
21497;SDS011;10910;50.932;0.246;2022-10-16T15:10:04;0.40;;;0.40;;
21497;SDS011;10910;50.932;0.246;2022-10-16T15:12:30;0.50;;;0.50;;
21497;SDS011;10910;50.932;0.246;2022-10-16T15:14:56;0.40;;;0.40;;
21497;SDS011;10910;50.932;0.246;2022-10-16T15:17:22;0.50;;;0.50;;
21497;SDS011;10910;50.932;0.246;2022-10-16T15:19:48;0.50;;;0.50;;
21497;SDS011;10910;50.932;0.246;2022-10-16T15:22:14;0.50;;;0.50;;
21497;SDS011;10910;50.932;0.246;2022-10-16T15:24:40;0.50;;;0.50;;
21497;SDS011;10910;50.932;0.246;2022-10-16T15:27:06;0.50;;;0.50;;
21497;SDS011;10910;50.932;0.246;2022-10-16T15:29:32;0.50;;;0.50;;
21497;SDS011;10910;50.932;0.246;2022-10-16T15:31:58;0.40;;;0.40;;
21497;SDS011;10910;50.932;0.246;2022-10-16T15:34:24;0.60;;;0.60;;
21497;SDS011;10910;50.932;0.246;2022-10-16T15:36:50;0.50;;;0.50;;
21497;SDS011;10910;50.932;0.246;2022-10-16T15:39:17;0.50;;;0.50;;
21497;SDS011;10910;50.932;0.246;2022-10-16T15:41:44;0.60;;;0.60;;
21497;SDS011;10910;50.932;0.246;2022-10-16T15:44:19;0.55;;;0.55;;
21497;SDS011;10910;50.932;0.246;2022-10-16T15:46:45;0.50;;;0.50;;
21497;SDS011;10910;50.932;0.246;2022-10-16T15:49:11;0.50;;;0.50;;
21497;SDS011;10910;50.932;0.246;2022-10-16T15:51:38;0.60;;;0.60;;
21497;SDS011;10910;50.932;0.246;2022-10-16T15:54:05;0.50;;;0.50;;
21497;SDS011;10910;50.932;0.246;2022-10-16T15:56:31;0.60;;;0.60;;
21497;SDS011;10910;50.932;0.246;2022-10-16T15:58:58;0.40;;;0.40;;
21497;SDS011;10910;50.932;0.246;2022-10-16T16:01:25;0.50;;;0.50;;
21497;SDS011;10910;50.932;0.246;2022-10-16T16:03:54;0.50;;;0.50;;
21497;SDS011;10910;50.932;0.246;2022-10-16T16:06:20;0.50;;;0.50;;
21497;SDS011;10910;50.932;0.246;2022-10-16T16:08:46;0.50;;;0.50;;
21497;SDS011;10910;50.932;0.246;2022-10-16T16:11:13;0.50;;;0.50;;
21497;SDS011;10910;50.932;0.246;2022-10-16T16:13:40;0.60;;;0.60;;
21497;SDS011;10910;50.932;0.246;2022-10-16T16:16:07;0.60;;;0.60;;
21497;SDS011;10910;50.932;0.246;2022-10-16T16:18:33;0.60;;;0.60;;
21497;SDS011;10910;50.932;0.246;2022-10-16T16:20:59;0.60;;;0.60;;
21497;SDS011;10910;50.932;0.246;2022-10-16T16:23:25;0.50;;;0.50;;
21497;SDS011;10910;50.932;0.246;2022-10-16T16:26:05;0.50;;;0.50;;
21497;SDS011;10910;50.932;0.246;2022-10-16T16:28:31;0.60;;;0.60;;
21497;SDS011;10910;50.932;0.246;2022-10-16T16:30:57;0.50;;;0.50;;
21497;SDS011;10910;50.932;0.246;2022-10-16T16:33:23;0.50;;;0.50;;
21497;SDS011;10910;50.932;0.246;2022-10-16T16:35:49;0.45;;;0.45;;
21497;SDS011;10910;50.932;0.246;2022-10-16T16:38:15;0.50;;;0.50;;
21497;SDS011;10910;50.932;0.246;2022-10-16T16:40:41;0.50;;;0.50;;
21497;SDS011;10910;50.932;0.246;2022-10-16T16:43:07;0.40;;;0.40;;
21497;SDS011;10910;50.932;0.246;2022-10-16T16:45:36;0.40;;;0.40;;
21497;SDS011;10910;50.932;0.246;2022-10-16T16:48:02;0.50;;;0.50;;
21497;SDS011;10910;50.932;0.246;2022-10-16T16:50:28;0.60;;;0.60;;
21497;SDS011;10910;50.932;0.246;2022-10-16T16:52:54;0.50;;;0.50;;
21497;SDS011;10910;50.932;0.246;2022-10-16T16:55:20;0.60;;;0.60;;
21497;SDS011;10910;50.932;0.246;2022-10-16T16:57:47;0.60;;;0.60;;
21497;SDS011;10910;50.932;0.246;2022-10-16T17:00:13;0.60;;;0.60;;
21497;SDS011;10910;50.932;0.246;2022-10-16T17:02:40;0.50;;;0.50;;
21497;SDS011;10910;50.932;0.246;2022-10-16T17:05:08;0.40;;;0.40;;
21497;SDS011;10910;50.932;0.246;2022-10-16T17:07:34;0.40;;;0.40;;